createdAt,value
2017-02-09T00:00:07.913Z,961.44
2017-02-09T00:01:07.553Z,961.44
2017-02-09T00:02:07.240Z,961.43
2017-02-09T00:03:07.900Z,961.46
2017-02-09T00:04:07.553Z,961.45
2017-02-09T00:05:08.149Z,961.51
2017-02-09T00:06:07.854Z,961.43
2017-02-09T00:07:07.438Z,961.46
2017-02-09T00:08:08.099Z,961.47
2017-02-09T00:09:07.849Z,961.47
2017-02-09T00:10:07.409Z,961.50
2017-02-09T00:11:08.058Z,961.45
2017-02-09T00:12:08.783Z,961.43
2017-02-09T00:13:07.381Z,961.42
2017-02-09T00:14:08.073Z,961.42
2017-02-09T00:15:08.779Z,961.43
2017-02-09T00:16:07.382Z,961.43
2017-02-09T00:17:08.120Z,961.41
2017-02-09T00:18:07.903Z,961.46
2017-02-09T00:19:07.528Z,961.51
2017-02-09T00:20:08.146Z,961.47
2017-02-09T00:21:07.832Z,961.46
2017-02-09T00:22:07.490Z,961.45
2017-02-09T00:23:08.163Z,961.47
2017-02-09T00:24:07.847Z,961.43
2017-02-09T00:25:07.451Z,961.44
2017-02-09T00:26:07.343Z,961.48
2017-02-09T00:27:07.874Z,961.45
2017-02-09T00:28:07.567Z,961.51
2017-02-09T00:29:07.277Z,961.42
2017-02-09T00:30:07.853Z,961.40
2017-02-09T00:31:07.530Z,961.43
2017-02-09T00:32:08.157Z,961.38
2017-02-09T00:33:07.866Z,961.38
2017-02-09T00:34:07.528Z,961.36
2017-02-09T00:35:08.151Z,961.40
2017-02-09T00:36:07.795Z,961.42
2017-02-09T00:37:07.462Z,961.40
2017-02-09T00:38:08.168Z,961.48
2017-02-09T00:39:07.828Z,961.46
2017-02-09T00:40:07.432Z,961.44
2017-02-09T00:41:08.104Z,961.43
2017-02-09T00:42:17.866Z,961.42
2017-02-09T00:43:07.458Z,961.45
2017-02-09T00:44:08.344Z,961.47
2017-02-09T00:45:07.822Z,961.45
2017-02-09T00:46:07.383Z,961.42
2017-02-09T00:47:09.093Z,961.50
2017-02-09T00:48:07.731Z,961.45
2017-02-09T00:49:07.414Z,961.51
2017-02-09T00:50:08.049Z,961.54
2017-02-09T00:51:07.720Z,961.51
2017-02-09T00:52:07.343Z,961.50
2017-02-09T00:53:07.971Z,961.50
2017-02-09T00:54:07.644Z,961.53
2017-02-09T00:55:07.252Z,961.51
2017-02-09T00:56:08.018Z,961.54
2017-02-09T00:57:07.665Z,961.56
2017-02-09T00:58:07.341Z,961.55
2017-02-09T00:59:08.014Z,961.51
2017-02-09T01:00:07.684Z,961.56
2017-02-09T01:01:07.290Z,961.59
2017-02-09T01:02:07.964Z,961.62
2017-02-09T01:03:07.666Z,961.60
2017-02-09T01:04:07.267Z,961.59
2017-02-09T01:05:07.967Z,961.57
2017-02-09T01:06:07.621Z,961.57
2017-02-09T01:07:07.243Z,961.57
2017-02-09T01:08:07.892Z,961.57
2017-02-09T01:09:07.584Z,961.54
2017-02-09T01:10:07.232Z,961.62
2017-02-09T01:11:07.880Z,961.57
2017-02-09T01:12:07.500Z,961.57
2017-02-09T01:13:08.166Z,961.57
2017-02-09T01:14:07.875Z,961.59
2017-02-09T01:15:07.504Z,961.56
2017-02-09T01:16:08.127Z,961.55
2017-02-09T01:17:07.773Z,961.61
2017-02-09T01:18:07.554Z,961.56
2017-02-09T01:19:08.217Z,961.54
2017-02-09T01:20:07.876Z,961.54
2017-02-09T01:21:07.492Z,961.49
2017-02-09T01:22:08.161Z,961.51
2017-02-09T01:23:07.851Z,961.51
2017-02-09T01:24:07.537Z,961.46
2017-02-09T01:25:08.128Z,961.46
2017-02-09T01:26:07.976Z,961.47
2017-02-09T01:27:07.575Z,961.47
2017-02-09T01:28:07.205Z,961.51
2017-02-09T01:29:07.888Z,961.50
2017-02-09T01:30:07.483Z,961.50
2017-02-09T01:31:08.120Z,961.59
2017-02-09T01:32:07.911Z,961.50
2017-02-09T01:33:07.582Z,961.48
2017-02-09T01:34:07.299Z,961.48
2017-02-09T01:35:07.881Z,961.49
2017-02-09T01:36:07.534Z,961.45
2017-02-09T01:37:08.162Z,961.50
2017-02-09T01:38:07.824Z,961.45
2017-02-09T01:39:07.501Z,961.47
2017-02-09T01:40:08.081Z,961.47
2017-02-09T01:41:07.734Z,961.41
2017-02-09T01:42:07.410Z,961.42
2017-02-09T01:43:08.026Z,961.44
2017-02-09T01:44:07.853Z,961.37
2017-02-09T01:45:07.386Z,961.43
2017-02-09T01:46:08.018Z,961.38
2017-02-09T01:47:07.691Z,961.38
2017-02-09T01:48:07.363Z,961.31
2017-02-09T01:49:08.036Z,961.33
2017-02-09T01:50:07.678Z,961.35
2017-02-09T01:51:07.314Z,961.32
2017-02-09T01:52:07.940Z,961.28
2017-02-09T01:53:07.552Z,961.31
2017-02-09T01:54:07.395Z,961.31
2017-02-09T01:55:07.886Z,961.31
2017-02-09T01:56:07.700Z,961.28
2017-02-09T01:57:07.334Z,961.31
2017-02-09T01:58:08.036Z,961.27
2017-02-09T01:59:07.723Z,961.28
2017-02-09T02:00:07.347Z,961.30
2017-02-09T02:01:08.002Z,961.30
2017-02-09T02:02:07.614Z,961.30
2017-02-09T02:03:07.303Z,961.30
2017-02-09T02:04:07.945Z,961.30
2017-02-09T02:05:07.614Z,961.27
2017-02-09T02:06:07.244Z,961.30
2017-02-09T02:07:07.916Z,961.30
2017-02-09T02:08:07.577Z,961.27
2017-02-09T02:09:07.277Z,961.31
2017-02-09T02:10:07.919Z,961.29
2017-02-09T02:11:07.578Z,961.27
2017-02-09T02:12:07.218Z,961.28
2017-02-09T02:13:07.919Z,961.27
2017-02-09T02:14:07.668Z,961.26
2017-02-09T02:15:07.242Z,961.29
2017-02-09T02:16:07.859Z,961.22
2017-02-09T02:17:07.611Z,961.27
2017-02-09T02:18:07.429Z,961.28
2017-02-09T02:19:08.155Z,961.26
2017-02-09T02:20:07.735Z,961.32
2017-02-09T02:21:07.380Z,961.33
2017-02-09T02:22:08.019Z,961.36
2017-02-09T02:23:07.677Z,961.30
2017-02-09T02:24:07.487Z,961.29
2017-02-09T02:25:08.003Z,961.31
2017-02-09T02:26:07.811Z,961.34
2017-02-09T02:27:07.487Z,961.27
2017-02-09T02:28:08.130Z,961.26
2017-02-09T02:29:07.836Z,961.24
2017-02-09T02:30:07.467Z,961.20
2017-02-09T02:31:08.198Z,961.25
2017-02-09T02:32:07.763Z,961.21
2017-02-09T02:33:07.459Z,961.22
2017-02-09T02:34:08.306Z,961.24
2017-02-09T02:35:07.733Z,961.22
2017-02-09T02:36:07.393Z,961.23
2017-02-09T02:37:08.088Z,961.23
2017-02-09T02:38:07.736Z,961.20
2017-02-09T02:39:07.447Z,961.20
2017-02-09T02:40:08.053Z,961.19
2017-02-09T02:41:07.648Z,961.20
2017-02-09T02:42:07.584Z,961.17
2017-02-09T02:43:08.015Z,961.18
2017-02-09T02:44:07.693Z,961.20
2017-02-09T02:45:07.306Z,961.16
2017-02-09T02:46:07.969Z,961.13
2017-02-09T02:47:07.647Z,961.13
2017-02-09T02:48:07.349Z,961.14
2017-02-09T02:49:07.993Z,961.14
2017-02-09T02:50:07.630Z,961.12
2017-02-09T02:51:07.268Z,961.15
2017-02-09T02:52:07.928Z,961.12
2017-02-09T02:53:07.572Z,961.12
2017-02-09T02:54:07.257Z,961.10
2017-02-09T02:55:07.871Z,961.11
2017-02-09T02:56:07.568Z,961.14
2017-02-09T02:57:07.222Z,961.14
2017-02-09T02:58:07.849Z,961.18
2017-02-09T02:59:07.595Z,961.15
2017-02-09T03:00:08.181Z,961.11
2017-02-09T03:01:07.793Z,961.12
2017-02-09T03:02:07.471Z,961.16
2017-02-09T03:03:07.348Z,961.19
2017-02-09T03:04:08.001Z,961.17
2017-02-09T03:05:07.605Z,961.17
2017-02-09T03:06:07.220Z,961.18
2017-02-09T03:07:07.873Z,961.18
2017-02-09T03:08:07.507Z,961.20
2017-02-09T03:09:08.271Z,961.16
2017-02-09T03:10:07.805Z,961.17
2017-02-09T03:11:07.473Z,961.16
2017-02-09T03:12:08.115Z,961.20
2017-02-09T03:13:07.725Z,961.18
2017-02-09T03:14:07.444Z,961.23
2017-02-09T03:15:08.040Z,961.23
2017-02-09T03:16:07.705Z,961.27
2017-02-09T03:17:07.430Z,961.22
2017-02-09T03:18:08.163Z,961.21
2017-02-09T03:19:07.840Z,961.23
2017-02-09T03:20:07.452Z,961.26
2017-02-09T03:21:08.153Z,961.23
2017-02-09T03:22:09.253Z,961.25
2017-02-09T03:23:07.430Z,961.24
2017-02-09T03:24:08.125Z,961.25
2017-02-09T03:25:07.731Z,961.25
2017-02-09T03:26:07.512Z,961.26
2017-02-09T03:27:07.588Z,961.26
2017-02-09T03:28:07.275Z,961.33
2017-02-09T03:29:07.924Z,961.29
2017-02-09T03:30:07.552Z,961.22
2017-02-09T03:31:07.217Z,961.24
2017-02-09T03:32:07.829Z,961.27
2017-02-09T03:33:07.550Z,961.25
2017-02-09T03:34:08.196Z,961.26
2017-02-09T03:35:07.818Z,961.28
2017-02-09T03:36:07.790Z,961.27
2017-02-09T03:37:08.036Z,961.27
2017-02-09T03:38:07.714Z,961.25
2017-02-09T03:39:07.415Z,961.23
2017-02-09T03:40:08.051Z,961.27
2017-02-09T03:41:07.674Z,961.23
2017-02-09T03:42:07.330Z,961.26
2017-02-09T03:43:07.931Z,961.26
2017-02-09T03:44:07.640Z,961.25
2017-02-09T03:45:07.219Z,961.28
2017-02-09T03:46:07.913Z,961.33
2017-02-09T03:47:07.583Z,961.29
2017-02-09T03:48:07.246Z,961.28
2017-02-09T03:49:07.891Z,961.30
2017-02-09T03:50:07.514Z,961.28
2017-02-09T03:51:08.164Z,961.26
2017-02-09T03:52:07.860Z,961.27
2017-02-09T03:53:07.462Z,961.26
2017-02-09T03:54:08.238Z,961.30
2017-02-09T03:55:07.786Z,961.26
2017-02-09T03:56:07.578Z,961.30
2017-02-09T03:57:07.277Z,961.35
2017-02-09T03:58:07.887Z,961.28
2017-02-09T03:59:07.600Z,961.28
2017-02-09T04:00:08.193Z,961.26
2017-02-09T04:01:07.854Z,961.24
2017-02-09T04:02:07.507Z,961.30
2017-02-09T04:03:08.211Z,961.24
2017-02-09T04:04:07.890Z,961.24
2017-02-09T04:05:07.511Z,961.31
2017-02-09T04:06:08.140Z,961.23
2017-02-09T04:07:07.845Z,961.24
2017-02-09T04:08:07.439Z,961.26
2017-02-09T04:09:08.175Z,961.24
2017-02-09T04:10:07.774Z,961.26
2017-02-09T04:11:07.462Z,961.26
2017-02-09T04:12:08.084Z,961.24
2017-02-09T04:13:07.723Z,961.26
2017-02-09T04:14:07.443Z,961.24
2017-02-09T04:15:08.671Z,961.27
2017-02-09T04:16:07.720Z,961.31
2017-02-09T04:17:07.386Z,961.34
2017-02-09T04:18:08.201Z,961.27
2017-02-09T04:19:07.880Z,961.27
2017-02-09T04:20:07.494Z,961.27
2017-02-09T04:21:08.148Z,961.24
2017-02-09T04:22:07.800Z,961.24
2017-02-09T04:23:07.451Z,961.23
2017-02-09T04:24:08.142Z,961.29
2017-02-09T04:25:07.749Z,961.19
2017-02-09T04:26:07.536Z,961.27
2017-02-09T04:27:08.192Z,961.26
2017-02-09T04:28:07.855Z,961.28
2017-02-09T04:29:07.539Z,961.23
2017-02-09T04:30:08.200Z,961.18
2017-02-09T04:31:07.806Z,961.19
2017-02-09T04:32:07.480Z,961.19
2017-02-09T04:33:08.177Z,961.17
2017-02-09T04:34:07.860Z,961.21
2017-02-09T04:35:07.492Z,961.17
2017-02-09T04:36:08.122Z,961.15
2017-02-09T04:37:07.777Z,961.11
2017-02-09T04:38:07.411Z,961.16
2017-02-09T04:39:08.085Z,961.09
2017-02-09T04:40:07.735Z,961.11
2017-02-09T04:41:07.440Z,961.09
2017-02-09T04:42:08.003Z,961.08
2017-02-09T04:43:07.652Z,961.09
2017-02-09T04:44:07.323Z,961.08
2017-02-09T04:45:07.958Z,961.08
2017-02-09T04:46:07.624Z,961.05
2017-02-09T04:47:07.260Z,961.03
2017-02-09T04:48:07.950Z,961.08
2017-02-09T04:49:07.641Z,961.04
2017-02-09T04:50:07.212Z,961.02
2017-02-09T04:51:07.912Z,961.05
2017-02-09T04:52:07.522Z,961.10
2017-02-09T04:53:08.159Z,961.04
2017-02-09T04:54:07.850Z,961.05
2017-02-09T04:55:07.500Z,961.03
2017-02-09T04:56:07.249Z,961.00
2017-02-09T04:57:07.893Z,960.99
2017-02-09T04:58:07.570Z,961.05
2017-02-09T04:59:08.229Z,960.99
2017-02-09T05:00:07.878Z,960.98
2017-02-09T05:01:07.525Z,961.01
2017-02-09T05:02:08.126Z,961.01
2017-02-09T05:03:07.839Z,961.04
2017-02-09T05:04:07.511Z,961.02
2017-02-09T05:05:08.136Z,961.05
2017-02-09T05:06:07.811Z,961.06
2017-02-09T05:07:07.464Z,961.04
2017-02-09T05:08:08.128Z,961.05
2017-02-09T05:09:07.802Z,961.04
2017-02-09T05:10:07.490Z,961.04
2017-02-09T05:11:08.053Z,961.04
2017-02-09T05:12:07.699Z,961.07
2017-02-09T05:13:07.358Z,961.03
2017-02-09T05:14:08.071Z,961.05
2017-02-09T05:15:07.670Z,961.05
2017-02-09T05:16:07.332Z,961.04
2017-02-09T05:17:08.077Z,961.00
2017-02-09T05:18:07.814Z,960.99
2017-02-09T05:19:07.459Z,961.00
2017-02-09T05:20:08.053Z,961.02
2017-02-09T05:21:07.696Z,960.97
2017-02-09T05:22:07.336Z,960.95
2017-02-09T05:23:07.993Z,960.99
2017-02-09T05:24:07.655Z,960.96
2017-02-09T05:25:09.764Z,961.00
2017-02-09T05:26:07.709Z,961.03
2017-02-09T05:27:07.413Z,960.97
2017-02-09T05:28:08.084Z,960.99
2017-02-09T05:29:07.791Z,960.96
2017-02-09T05:30:07.432Z,960.95
2017-02-09T05:31:08.053Z,961.02
2017-02-09T05:32:07.708Z,960.95
2017-02-09T05:33:07.387Z,960.98
2017-02-09T05:34:08.026Z,960.96
2017-02-09T05:35:07.682Z,960.98
2017-02-09T05:36:07.314Z,960.96
2017-02-09T05:37:07.978Z,960.96
2017-02-09T05:38:07.665Z,960.94
2017-02-09T05:39:07.350Z,961.01
2017-02-09T05:40:07.939Z,961.03
2017-02-09T05:41:07.579Z,961.04
2017-02-09T05:42:07.217Z,961.03
2017-02-09T05:43:07.927Z,961.01
2017-02-09T05:44:07.617Z,961.06
2017-02-09T05:45:07.244Z,961.08
2017-02-09T05:46:07.881Z,961.10
2017-02-09T05:47:07.530Z,961.11
2017-02-09T05:48:08.231Z,961.08
2017-02-09T05:49:07.879Z,961.07
2017-02-09T05:50:07.519Z,961.09
2017-02-09T05:51:08.199Z,961.13
2017-02-09T05:52:07.794Z,961.14
2017-02-09T05:53:07.490Z,961.10
2017-02-09T05:54:08.207Z,961.12
2017-02-09T05:55:07.780Z,961.08
2017-02-09T05:56:07.569Z,961.05
2017-02-09T05:57:07.233Z,961.09
2017-02-09T05:58:07.890Z,961.09
2017-02-09T05:59:07.565Z,961.09
2017-02-09T06:00:08.171Z,961.09
2017-02-09T06:01:07.818Z,961.14
2017-02-09T06:02:07.473Z,961.12
2017-02-09T06:03:08.190Z,961.12
2017-02-09T06:04:07.849Z,961.16
2017-02-09T06:05:07.442Z,961.13
2017-02-09T06:06:08.096Z,961.12
2017-02-09T06:07:07.776Z,961.17
2017-02-09T06:08:07.371Z,961.16
2017-02-09T06:09:08.036Z,961.10
2017-02-09T06:10:07.653Z,961.11
2017-02-09T06:11:07.307Z,961.09
2017-02-09T06:12:07.973Z,961.12
2017-02-09T06:13:07.628Z,961.10
2017-02-09T06:14:07.297Z,961.07
2017-02-09T06:15:07.964Z,961.05
2017-02-09T06:16:07.581Z,961.05
2017-02-09T06:17:07.302Z,961.04
2017-02-09T06:18:08.075Z,961.06
2017-02-09T06:19:07.737Z,961.11
2017-02-09T06:20:07.429Z,961.13
2017-02-09T06:21:08.020Z,961.11
2017-02-09T06:22:07.686Z,961.08
2017-02-09T06:23:07.316Z,961.09
2017-02-09T06:24:08.028Z,961.08
2017-02-09T06:25:07.616Z,961.05
2017-02-09T06:26:07.480Z,961.05
2017-02-09T06:27:08.108Z,961.08
2017-02-09T06:28:07.755Z,961.14
2017-02-09T06:29:07.426Z,961.04
2017-02-09T06:30:08.058Z,961.07
2017-02-09T06:31:07.698Z,961.06
2017-02-09T06:32:07.382Z,961.06
2017-02-09T06:33:08.130Z,961.01
2017-02-09T06:34:07.750Z,961.06
2017-02-09T06:35:07.324Z,961.08
2017-02-09T06:36:08.015Z,961.08
2017-02-09T06:37:07.685Z,961.08
2017-02-09T06:38:07.340Z,961.04
2017-02-09T06:39:08.037Z,961.08
2017-02-09T06:40:07.681Z,961.07
2017-02-09T06:41:07.326Z,961.06
2017-02-09T06:42:07.995Z,961.02
2017-02-09T06:43:07.627Z,961.02
2017-02-09T06:44:07.292Z,961.08
2017-02-09T06:45:07.880Z,961.08
2017-02-09T06:46:07.527Z,961.07
2017-02-09T06:47:08.195Z,961.06
2017-02-09T06:48:07.874Z,961.07
2017-02-09T06:49:07.537Z,961.07
2017-02-09T06:50:08.159Z,961.08
2017-02-09T06:51:07.756Z,961.06
2017-02-09T06:52:07.417Z,961.03
2017-02-09T06:53:08.690Z,961.02
2017-02-09T06:54:07.739Z,961.13
2017-02-09T06:55:07.327Z,961.11
2017-02-09T06:56:08.114Z,961.10
2017-02-09T06:57:07.814Z,961.02
2017-02-09T06:58:07.479Z,961.08
2017-02-09T06:59:08.169Z,961.08
2017-02-09T07:00:07.785Z,961.03
2017-02-09T07:01:07.505Z,961.00
2017-02-09T07:02:08.139Z,961.01
2017-02-09T07:03:07.813Z,960.99
2017-02-09T07:04:07.455Z,961.03
2017-02-09T07:05:08.094Z,961.01
2017-02-09T07:06:07.721Z,961.01
2017-02-09T07:07:07.392Z,960.99
2017-02-09T07:08:08.059Z,961.02
2017-02-09T07:09:07.705Z,961.05
2017-02-09T07:10:07.325Z,961.02
2017-02-09T07:11:07.976Z,960.99
2017-02-09T07:12:07.641Z,961.01
2017-02-09T07:13:07.285Z,960.93
2017-02-09T07:14:08.234Z,960.98
2017-02-09T07:15:07.601Z,960.97
2017-02-09T07:16:07.274Z,961.01
2017-02-09T07:17:07.963Z,960.95
2017-02-09T07:18:07.742Z,960.95
2017-02-09T07:19:07.395Z,960.94
2017-02-09T07:20:07.967Z,960.96
2017-02-09T07:21:07.830Z,960.96
2017-02-09T07:22:07.319Z,960.94
2017-02-09T07:23:07.955Z,961.03
2017-02-09T07:24:07.640Z,961.01
2017-02-09T07:25:07.237Z,960.99
2017-02-09T07:26:08.025Z,960.96
2017-02-09T07:27:07.636Z,960.93
2017-02-09T07:28:07.357Z,960.95
2017-02-09T07:29:08.041Z,960.92
2017-02-09T07:30:07.642Z,960.98
2017-02-09T07:31:07.276Z,960.95
2017-02-09T07:32:07.985Z,960.93
2017-02-09T07:33:07.698Z,960.96
2017-02-09T07:34:07.378Z,960.96
2017-02-09T07:35:07.955Z,960.95
2017-02-09T07:36:07.571Z,960.93
2017-02-09T07:37:08.305Z,960.90
2017-02-09T07:38:08.993Z,960.94
2017-02-09T07:39:07.611Z,960.93
2017-02-09T07:40:15.705Z,960.93
2017-02-09T07:41:07.866Z,960.98
2017-02-09T07:43:07.592Z,960.98
2017-02-09T07:44:07.269Z,960.95
2017-02-09T07:45:07.903Z,960.95
2017-02-09T07:46:07.542Z,960.94
2017-02-09T07:47:08.284Z,960.90
2017-02-09T07:48:07.872Z,960.87
2017-02-09T07:49:08.599Z,960.90
2017-02-09T07:50:18.725Z,960.85
2017-02-09T07:51:08.887Z,960.85
2017-02-09T07:52:08.538Z,960.86
2017-02-09T07:53:08.110Z,960.86
2017-02-09T07:54:07.795Z,960.84
2017-02-09T07:55:08.517Z,960.83
2017-02-09T07:56:18.602Z,960.81
2017-02-09T07:57:07.893Z,960.85
2017-02-09T07:59:08.102Z,960.85
2017-02-09T08:00:08.832Z,960.83
2017-02-09T08:01:08.476Z,960.86
2017-02-09T08:02:08.044Z,960.88
2017-02-09T08:03:07.761Z,960.87
2017-02-09T08:04:07.389Z,960.87
2017-02-09T08:05:08.656Z,960.86
2017-02-09T08:06:08.159Z,960.90
2017-02-09T08:07:08.915Z,960.83
2017-02-09T08:08:07.541Z,960.84
2017-02-09T08:09:09.227Z,960.77
2017-02-09T08:10:08.887Z,960.80
2017-02-09T08:11:07.464Z,960.79
2017-02-09T08:12:09.137Z,960.81
2017-02-09T08:13:07.770Z,960.81
2017-02-09T08:14:08.471Z,960.80
2017-02-09T08:15:08.156Z,960.73
2017-02-09T08:16:08.874Z,960.78
2017-02-09T08:17:08.479Z,960.76
2017-02-09T08:18:08.359Z,960.74
2017-02-09T08:19:07.980Z,960.73
2017-02-09T08:20:08.685Z,960.74
2017-02-09T08:21:08.179Z,960.70
2017-02-09T08:22:08.963Z,960.69
2017-02-09T08:23:07.470Z,960.68
2017-02-09T08:24:08.162Z,960.68
2017-02-09T08:25:08.933Z,960.67
2017-02-09T08:26:07.466Z,960.67
2017-02-09T08:28:09.876Z,960.69
2017-02-09T08:28:19.585Z,960.66
2017-02-09T08:29:08.749Z,960.64
2017-02-09T08:30:18.232Z,960.64
2017-02-09T08:31:07.998Z,960.72
2017-02-09T08:32:07.693Z,960.67
2017-02-09T08:33:08.389Z,960.64
2017-02-09T08:34:27.600Z,960.64
2017-02-09T08:35:08.275Z,960.64
2017-02-09T08:36:08.097Z,960.62
2017-02-09T08:37:07.783Z,960.62
2017-02-09T08:38:07.439Z,960.63
2017-02-09T08:39:08.094Z,960.65
2017-02-09T08:40:08.019Z,960.59
2017-02-09T08:41:07.692Z,960.72
2017-02-09T08:42:08.253Z,960.66
2017-02-09T08:43:07.985Z,960.60
2017-02-09T08:44:07.564Z,960.59
2017-02-09T08:45:08.132Z,960.60
2017-02-09T08:46:08.442Z,960.62
2017-02-09T08:47:08.155Z,960.61
2017-02-09T08:48:07.893Z,960.63
2017-02-09T08:49:07.663Z,960.63
2017-02-09T08:50:08.512Z,960.67
2017-02-09T08:51:08.124Z,960.67
2017-02-09T08:52:07.832Z,960.62
2017-02-09T08:53:07.563Z,960.62
2017-02-09T08:54:08.263Z,960.68
2017-02-09T08:55:07.954Z,960.63
2017-02-09T08:56:07.621Z,960.64
2017-02-09T08:57:08.292Z,960.64
2017-02-09T08:58:07.893Z,960.64
2017-02-09T08:59:07.622Z,960.62
2017-02-09T09:00:08.422Z,960.61
2017-02-09T09:01:08.210Z,960.63
2017-02-09T09:02:07.915Z,960.63
2017-02-09T09:03:08.480Z,960.63
2017-02-09T09:04:07.878Z,960.60
2017-02-09T09:05:07.494Z,960.58
2017-02-09T09:06:08.160Z,960.60
2017-02-09T09:07:07.982Z,960.57
2017-02-09T09:08:07.596Z,960.63
2017-02-09T09:09:08.222Z,960.59
2017-02-09T09:10:07.901Z,960.56
2017-02-09T09:11:07.879Z,960.58
2017-02-09T09:12:07.564Z,960.63
2017-02-09T09:13:08.284Z,960.56
2017-02-09T09:14:08.009Z,960.61
2017-02-09T09:15:07.692Z,960.54
2017-02-09T09:16:08.390Z,960.54
2017-02-09T09:17:08.118Z,960.56
2017-02-09T09:18:07.948Z,960.54
2017-02-09T09:19:07.489Z,960.50
2017-02-09T09:20:07.930Z,960.55
2017-02-09T09:21:07.808Z,960.45
2017-02-09T09:22:07.475Z,960.50
2017-02-09T09:23:08.030Z,960.51
2017-02-09T09:24:07.689Z,960.50
2017-02-09T09:25:08.452Z,960.47
2017-02-09T09:26:23.412Z,960.48
2017-02-09T09:27:08.068Z,960.56
2017-02-09T09:28:07.783Z,960.51
2017-02-09T09:29:08.289Z,960.51
2017-02-09T09:30:08.193Z,960.52
2017-02-09T09:31:08.095Z,960.47
2017-02-09T09:32:07.828Z,960.44
2017-02-09T09:33:07.420Z,960.42
2017-02-09T09:34:08.115Z,960.46
2017-02-09T09:35:07.765Z,960.40
2017-02-09T09:36:07.404Z,960.39
2017-02-09T09:37:08.075Z,960.40
2017-02-09T09:38:07.618Z,960.34
2017-02-09T09:39:08.392Z,960.38
2017-02-09T09:40:08.072Z,960.34
2017-02-09T09:41:07.778Z,960.33
2017-02-09T09:42:07.550Z,960.32
2017-02-09T09:43:08.246Z,960.37
2017-02-09T09:44:07.955Z,960.33
2017-02-09T09:45:07.643Z,960.38
2017-02-09T09:46:08.403Z,960.36
2017-02-09T09:47:07.959Z,960.37
2017-02-09T09:48:08.521Z,960.40
2017-02-09T09:49:07.707Z,960.41
2017-02-09T09:50:08.541Z,960.43
2017-02-09T09:51:08.265Z,960.38
2017-02-09T09:52:07.691Z,960.41
2017-02-09T09:53:08.563Z,960.40
2017-02-09T09:54:08.148Z,960.41
2017-02-09T09:55:08.283Z,960.35
2017-02-09T09:56:07.744Z,960.37
2017-02-09T09:57:08.273Z,960.37
2017-02-09T09:58:07.863Z,960.39
2017-02-09T09:59:07.360Z,960.37
2017-02-09T10:00:07.918Z,960.37
2017-02-09T10:02:07.756Z,960.36
2017-02-09T10:03:07.728Z,960.33
2017-02-09T10:04:08.291Z,960.31
2017-02-09T10:06:07.931Z,960.30
2017-02-09T10:06:11.231Z,960.31
2017-02-09T10:07:07.866Z,960.30
2017-02-09T10:08:07.456Z,960.30
2017-02-09T10:09:08.021Z,960.27
2017-02-09T10:10:07.653Z,960.26
2017-02-09T10:11:08.206Z,960.27
2017-02-09T10:12:07.705Z,960.27
2017-02-09T10:13:08.349Z,960.29
2017-02-09T10:14:08.889Z,960.24
2017-02-09T10:15:07.561Z,960.26
2017-02-09T10:16:08.073Z,960.28
2017-02-09T10:17:07.846Z,960.23
2017-02-09T10:18:07.435Z,960.29
2017-02-09T10:19:08.207Z,960.29
2017-02-09T10:20:07.875Z,960.31
2017-02-09T10:21:07.337Z,960.28
2017-02-09T10:22:07.886Z,960.27
2017-02-09T10:23:07.491Z,960.31
2017-02-09T10:24:08.121Z,960.34
2017-02-09T10:25:07.978Z,960.29
2017-02-09T10:26:07.542Z,960.31
2017-02-09T10:27:08.013Z,960.30
2017-02-09T10:28:07.739Z,960.29
2017-02-09T10:29:08.254Z,960.24
2017-02-09T10:30:07.819Z,960.26
2017-02-09T10:31:07.441Z,960.21
2017-02-09T10:32:07.939Z,960.25
2017-02-09T10:33:08.412Z,960.25
2017-02-09T10:34:08.564Z,960.26
2017-02-09T10:35:08.121Z,960.19
2017-02-09T10:36:07.861Z,960.25
2017-02-09T10:37:07.822Z,960.16
2017-02-09T10:38:07.255Z,960.17
2017-02-09T10:39:07.792Z,960.15
2017-02-09T10:40:07.472Z,960.12
2017-02-09T10:41:07.954Z,960.14
2017-02-09T10:42:07.551Z,960.15
2017-02-09T10:43:09.161Z,960.15
2017-02-09T10:44:08.021Z,960.18
2017-02-09T10:45:07.606Z,960.19
2017-02-09T10:46:07.672Z,960.16
2017-02-09T10:47:08.541Z,960.18
2017-02-09T10:48:08.135Z,960.14
2017-02-09T10:49:07.875Z,960.17
2017-02-09T10:50:07.369Z,960.15
2017-02-09T10:51:07.850Z,960.13
2017-02-09T10:52:07.421Z,960.09
2017-02-09T10:53:08.093Z,960.10
2017-02-09T10:54:07.957Z,960.09
2017-02-09T10:55:07.570Z,960.08
2017-02-09T10:56:08.052Z,960.05
2017-02-09T10:57:07.617Z,960.06
2017-02-09T10:58:08.323Z,960.05
2017-02-09T10:59:07.943Z,960.05
2017-02-09T11:00:07.536Z,960.00
2017-02-09T11:01:08.063Z,959.99
2017-02-09T11:02:07.615Z,959.93
2017-02-09T11:03:08.140Z,959.93
2017-02-09T11:04:08.025Z,959.94
2017-02-09T11:05:07.681Z,959.93
2017-02-09T11:06:08.298Z,959.92
2017-02-09T11:07:07.871Z,959.98
2017-02-09T11:08:07.556Z,959.89
2017-02-09T11:09:08.313Z,959.85
2017-02-09T11:10:07.801Z,959.81
2017-02-09T11:11:07.332Z,959.81
2017-02-09T11:12:08.220Z,959.78
2017-02-09T11:13:07.736Z,959.77
2017-02-09T11:14:08.674Z,959.80
2017-02-09T11:15:08.391Z,959.79
2017-02-09T11:16:07.875Z,959.79
2017-02-09T11:17:07.825Z,959.76
2017-02-09T11:18:07.388Z,959.79
2017-02-09T11:19:07.921Z,959.75
2017-02-09T11:20:07.538Z,959.72
2017-02-09T11:21:07.756Z,959.70
2017-02-09T11:22:07.492Z,959.73
2017-02-09T11:23:08.000Z,959.71
2017-02-09T11:24:07.469Z,959.70
2017-02-09T11:25:08.057Z,959.70
2017-02-09T11:26:07.597Z,959.71
2017-02-09T11:27:08.142Z,959.69
2017-02-09T11:28:07.572Z,959.70
2017-02-09T11:29:09.151Z,959.72
2017-02-09T11:30:07.791Z,959.73
2017-02-09T11:31:07.641Z,959.69
2017-02-09T11:32:08.121Z,959.70
2017-02-09T11:33:07.588Z,959.75
2017-02-09T11:34:08.188Z,959.75
2017-02-09T11:35:08.742Z,959.67
2017-02-09T11:36:07.664Z,959.70
2017-02-09T11:37:08.019Z,959.67
2017-02-09T11:38:07.607Z,959.66
2017-02-09T11:39:08.226Z,959.66
2017-02-09T11:40:08.275Z,959.64
2017-02-09T11:41:07.839Z,959.68
2017-02-09T11:42:07.596Z,959.71
2017-02-09T11:43:08.360Z,959.68
2017-02-09T11:44:08.858Z,959.67
2017-02-09T11:45:08.138Z,959.64
2017-02-09T11:46:07.615Z,959.68
2017-02-09T11:47:08.132Z,959.62
2017-02-09T11:48:07.776Z,959.61
2017-02-09T11:49:08.714Z,959.58
2017-02-09T11:50:08.570Z,959.59
2017-02-09T11:51:08.239Z,959.55
2017-02-09T11:52:07.783Z,959.57
2017-02-09T11:53:07.405Z,959.55
2017-02-09T11:54:17.718Z,959.52
2017-02-09T11:55:08.302Z,959.54
2017-02-09T11:56:07.844Z,959.49
2017-02-09T11:57:07.341Z,959.48
2017-02-09T11:58:07.889Z,959.52
2017-02-09T11:59:07.952Z,959.49
2017-02-09T12:00:07.710Z,959.43
2017-02-09T12:01:08.240Z,959.40
2017-02-09T12:02:07.800Z,959.43
2017-02-09T12:03:07.603Z,959.41
2017-02-09T12:04:08.161Z,959.48
2017-02-09T12:05:07.671Z,959.44
2017-02-09T12:06:08.199Z,959.47
2017-02-09T12:07:07.982Z,959.46
2017-02-09T12:08:07.564Z,959.49
2017-02-09T12:09:19.265Z,959.46
2017-02-09T12:10:07.810Z,959.44
2017-02-09T12:11:07.274Z,959.44
2017-02-09T12:12:07.834Z,959.46
2017-02-09T12:13:07.500Z,959.41
2017-02-09T12:14:08.074Z,959.49
2017-02-09T12:15:07.624Z,959.50
2017-02-09T12:16:08.373Z,959.45
2017-02-09T12:17:08.042Z,959.47
2017-02-09T12:18:07.579Z,959.42
2017-02-09T12:19:09.379Z,959.40
2017-02-09T12:20:08.168Z,959.39
2017-02-09T12:21:07.673Z,959.38
2017-02-09T12:22:08.286Z,959.42
2017-02-09T12:23:07.785Z,959.41
2017-02-09T12:24:07.545Z,959.38
2017-02-09T12:25:08.114Z,959.36
2017-02-09T12:26:07.619Z,959.30
2017-02-09T12:27:08.252Z,959.33
2017-02-09T12:28:07.949Z,959.27
2017-02-09T12:29:07.403Z,959.25
2017-02-09T12:30:08.001Z,959.26
2017-02-09T12:31:07.654Z,959.23